Time;durP1;ratioP1;P1;durP2;ratioP2;P2;SDS_P1;SDS_P2;PMS_P1;PMS_P2;Temp;Humidity;BMP_temperature;BMP_pressure;BME280_temperature;BME280_humidity;BME280_pressure;Samples;Min_cycle;Max_cycle;Signal;HPM_P1;HPM_P2
2023/03/25 00:00:16;;;;;;;29.95;24.38;;;11.10;99.90;;;;;;6240147;22;20373;-78
2023/03/25 00:02:52;;;;;;;26.67;22.50;;;11.10;99.90;;;;;;6240915;23;20698;-78
2023/03/25 00:05:20;;;;;;;29.17;24.80;;;11.10;99.90;;;;;;6240726;22;20432;-78
2023/03/25 00:07:51;;;;;;;32.22;25.63;;;11.20;99.90;;;;;;6240853;23;20369;-78
2023/03/25 00:10:19;;;;;;;29.90;25.92;;;11.20;99.90;;;;;;6239681;22;20400;-78
2023/03/25 00:12:46;;;;;;;35.42;28.55;;;11.20;99.90;;;;;;6242044;22;20707;-78
2023/03/25 00:15:15;;;;;;;30.40;25.38;;;11.20;99.90;;;;;;6239332;22;20411;-78
2023/03/25 00:17:42;;;;;;;33.87;28.40;;;11.20;99.90;;;;;;6239711;23;20361;-78
2023/03/25 00:20:10;;;;;;;30.88;25.88;;;11.20;99.90;;;;;;6239812;22;20378;-78
2023/03/25 00:22:43;;;;;;;29.30;24.77;;;11.20;99.90;;;;;;6239594;23;20500;-78
2023/03/25 00:25:16;;;;;;;34.17;28.35;;;11.20;99.90;;;;;;6239464;22;20381;-78
2023/03/25 00:27:45;;;;;;;30.67;25.08;;;11.20;99.90;;;;;;6240447;23;20372;-78
2023/03/25 00:30:14;;;;;;;27.48;23.25;;;11.10;99.90;;;;;;6239672;22;20369;-78
2023/03/25 00:32:44;;;;;;;34.28;28.85;;;11.10;99.90;;;;;;6240400;23;20373;-78
2023/03/25 00:35:12;;;;;;;34.65;28.63;;;11.10;99.90;;;;;;6241220;22;20377;-79
2023/03/25 00:37:40;;;;;;;33.45;28.55;;;11.00;99.90;;;;;;6242240;22;20412;-78
2023/03/25 00:40:08;;;;;;;32.57;27.60;;;11.10;99.90;;;;;;6239278;22;20746;-78
2023/03/25 00:42:35;;;;;;;31.70;25.95;;;11.10;99.90;;;;;;6240302;23;20677;-78
2023/03/25 00:45:05;;;;;;;32.20;27.25;;;11.00;99.90;;;;;;6239027;22;20377;-78
2023/03/25 00:47:32;;;;;;;31.40;25.88;;;10.80;99.90;;;;;;6240189;23;20381;-78
2023/03/25 00:49:58;;;;;;;28.10;24.55;;;10.80;99.90;;;;;;6240116;23;20452;-79
2023/03/25 00:52:25;;;;;;;31.65;24.63;;;10.80;99.90;;;;;;6241004;22;20470;-78
2023/03/25 00:54:52;;;;;;;27.35;23.40;;;10.70;99.90;;;;;;6240109;23;20427;-78
2023/03/25 00:57:19;;;;;;;27.05;21.98;;;10.70;99.90;;;;;;6239269;22;20377;-78
2023/03/25 00:59:46;;;;;;;27.42;22.67;;;10.70;99.90;;;;;;6240222;23;20743;-78
2023/03/25 01:02:15;;;;;;;27.05;22.40;;;10.60;99.90;;;;;;6239096;22;20368;-78
2023/03/25 01:04:44;;;;;;;30.90;25.98;;;10.60;99.90;;;;;;6240220;23;20404;-78
2023/03/25 01:07:14;;;;;;;28.25;23.25;;;10.50;99.90;;;;;;6239263;22;20365;-78
2023/03/25 01:09:45;;;;;;;29.38;23.98;;;10.50;99.90;;;;;;6240310;23;21157;-78
2023/03/25 01:12:13;;;;;;;25.63;21.65;;;10.40;99.90;;;;;;6241442;22;20365;-78
2023/03/25 01:14:41;;;;;;;28.58;22.95;;;10.50;99.90;;;;;;6239623;23;20355;-78
2023/03/25 01:17:08;;;;;;;28.05;23.33;;;10.50;99.90;;;;;;6239194;22;20376;-77
2023/03/25 01:19:35;;;;;;;25.90;21.92;;;10.40;99.90;;;;;;6240135;23;20367;-77
2023/03/25 01:22:02;;;;;;;24.35;20.83;;;10.40;99.90;;;;;;6240452;23;20676;-77
2023/03/25 01:24:29;;;;;;;27.67;22.80;;;10.40;99.90;;;;;;6238721;22;20365;-77
2023/03/25 01:26:56;;;;;;;25.57;20.50;;;10.40;99.90;;;;;;6240846;23;20711;-77
2023/03/25 01:29:23;;;;;;;26.13;21.35;;;10.20;99.90;;;;;;6241044;22;20377;-78
2023/03/25 01:31:50;;;;;;;24.95;22.02;;;10.20;99.90;;;;;;6242205;23;20371;-78
2023/03/25 01:34:17;;;;;;;23.80;20.25;;;10.10;99.90;;;;;;6240851;22;20377;-78
2023/03/25 01:36:48;;;;;;;24.52;20.95;;;10.00;99.90;;;;;;6244038;22;20395;-77
2023/03/25 01:39:17;;;;;;;27.20;23.33;;;9.90;99.90;;;;;;6241047;22;20763;-77
2023/03/25 01:41:46;;;;;;;26.70;23.07;;;9.90;99.90;;;;;;6243271;22;20761;-78
2023/03/25 01:44:18;;;;;;;32.13;26.55;;;9.80;99.90;;;;;;6241134;22;20369;-78
2023/03/25 01:46:47;;;;;;;30.60;25.55;;;9.70;99.90;;;;;;6242012;23;20412;-78
2023/03/25 01:49:22;;;;;;;32.90;27.08;;;9.60;99.90;;;;;;6241006;22;20694;-78
2023/03/25 01:51:56;;;;;;;32.70;27.33;;;9.60;99.90;;;;;;6241877;23;20369;-78
2023/03/25 01:54:26;;;;;;;30.42;25.15;;;9.60;99.90;;;;;;6241218;22;20381;-78
2023/03/25 01:56:54;;;;;;;28.17;24.07;;;9.50;99.90;;;;;;6243277;22;20377;-78
2023/03/25 01:59:25;;;;;;;30.38;25.30;;;9.50;99.90;;;;;;6241169;22;20373;-78
2023/03/25 03:26:52;;;;;;;22.02;19.73;;;8.20;99.90;;;;;;6234331;22;20371;-78
2023/03/25 03:29:27;;;;;;;22.58;20.13;;;8.20;99.90;;;;;;6242016;22;20430;-78
2023/03/25 03:32:35;;;;;;;31.90;25.38;;;8.20;99.90;;;;;;6241344;22;20688;-79
2023/03/25 03:35:15;;;;;;;30.63;24.73;;;8.20;99.90;;;;;;6220424;22;20380;-78
2023/03/25 03:37:48;;;;;;;43.97;24.30;;;8.30;99.90;;;;;;6243167;22;20366;-79
2023/03/25 03:40:20;;;;;;;24.23;21.60;;;8.30;99.90;;;;;;6241004;22;20738;-79
2023/03/25 03:42:52;;;;;;;35.22;21.58;;;8.10;99.90;;;;;;6241715;23;20388;-79
2023/03/25 03:45:29;;;;;;;28.63;21.88;;;8.10;99.90;;;;;;6240563;22;20373;-78
2023/03/25 03:47:58;;;;;;;24.23;21.27;;;8.00;99.90;;;;;;6242384;22;20369;-79
2023/03/25 03:50:35;;;;;;;29.95;23.65;;;8.00;99.90;;;;;;6241964;23;20399;-80
2023/03/25 03:53:19;;;;;;;27.70;24.20;;;8.00;99.90;;;;;;6241443;22;20373;-80
2023/03/25 03:55:54;;;;;;;26.65;23.05;;;8.00;99.90;;;;;;6243036;23;20377;-81
2023/03/25 03:58:27;;;;;;;29.55;25.38;;;8.00;99.90;;;;;;6241642;23;20755;-80
2023/03/25 04:01:44;;;;;;;31.48;25.00;;;8.00;99.90;;;;;;6242359;23;20457;-80
2023/03/25 04:04:30;;;;;;;29.25;24.73;;;8.00;99.90;;;;;;6068613;23;20373;-80
2023/03/25 04:07:03;;;;;;;26.45;22.83;;;8.10;99.90;;;;;;6067716;23;20449;-81
2023/03/25 04:09:40;;;;;;;61.67;28.08;;;8.20;99.90;;;;;;6181299;23;20407;-81
2023/03/25 04:12:18;;;;;;;37.10;25.77;;;8.10;99.90;;;;;;6210833;23;20457;-81
2023/03/25 04:14:46;;;;;;;30.58;25.00;;;8.20;99.90;;;;;;6211277;23;20389;-80
2023/03/25 04:17:13;;;;;;;30.98;25.55;;;8.20;99.90;;;;;;6211785;23;20359;-81
2023/03/25 04:19:40;;;;;;;36.45;27.50;;;8.20;99.90;;;;;;6211658;23;20704;-81
2023/03/25 04:22:07;;;;;;;36.03;26.98;;;8.30;99.90;;;;;;6211224;23;20375;-81
2023/03/25 04:24:36;;;;;;;65.22;27.67;;;8.20;99.90;;;;;;6211942;23;20367;-80
2023/03/25 04:27:03;;;;;;;54.65;28.05;;;8.30;99.90;;;;;;6210954;23;20374;-80
2023/03/25 04:29:31;;;;;;;38.47;27.88;;;8.20;99.90;;;;;;6211753;23;20765;-80
2023/03/25 04:31:59;;;;;;;47.15;28.65;;;8.30;99.90;;;;;;6210921;23;20402;-81
2023/03/25 04:34:27;;;;;;;61.33;30.60;;;8.30;99.90;;;;;;6212841;23;20689;-81
2023/03/25 04:36:54;;;;;;;37.22;28.98;;;8.40;99.90;;;;;;6212054;23;20374;-80
2023/03/25 04:39:24;;;;;;;38.63;29.30;;;8.40;99.90;;;;;;6211717;23;20374;-81
2023/03/25 04:42:01;;;;;;;39.10;30.38;;;8.40;99.90;;;;;;6208968;23;20379;-80
2023/03/25 04:44:32;;;;;;;42.15;29.63;;;8.50;99.90;;;;;;6213197;23;20367;-81
2023/03/25 04:47:01;;;;;;;37.80;28.75;;;8.50;99.90;;;;;;6210257;23;20370;-80
2023/03/25 04:49:28;;;;;;;37.72;28.55;;;8.40;99.90;;;;;;6211641;23;20424;-80
2023/03/25 04:51:56;;;;;;;33.13;25.13;;;8.40;99.90;;;;;;6210958;23;20374;-80
2023/03/25 04:54:24;;;;;;;36.92;27.25;;;8.40;99.90;;;;;;6212026;23;20367;-81
2023/03/25 04:56:51;;;;;;;50.15;28.88;;;8.30;99.90;;;;;;6210733;23;20375;-80
2023/03/25 04:59:20;;;;;;;39.40;27.02;;;8.30;99.90;;;;;;6211700;23;20394;-81
2023/03/25 05:01:47;;;;;;;30.20;24.02;;;8.20;99.90;;;;;;6211387;23;20709;-81
2023/03/25 05:04:16;;;;;;;34.03;23.80;;;8.20;99.90;;;;;;6210935;23;20362;-80
2023/03/25 05:06:50;;;;;;;27.02;21.30;;;8.20;99.90;;;;;;6211439;23;20375;-81
2023/03/25 05:09:20;;;;;;;34.50;22.20;;;8.20;99.90;;;;;;6211585;23;20454;-81
2023/03/25 05:11:49;;;;;;;24.40;20.20;;;8.10;99.90;;;;;;6213044;23;20379;-80
2023/03/25 05:14:19;;;;;;;25.10;20.30;;;8.00;99.90;;;;;;6211196;23;20725;-80
2023/03/25 05:16:47;;;;;;;24.33;20.70;;;8.00;99.90;;;;;;6211533;23;20406;-80
2023/03/25 05:19:17;;;;;;;24.95;20.38;;;8.00;99.90;;;;;;6211045;23;20366;-80
2023/03/25 05:21:44;;;;;;;27.00;21.48;;;7.90;99.90;;;;;;6212264;23;20370;-80
2023/03/25 05:24:12;;;;;;;23.38;19.80;;;7.90;99.90;;;;;;6210848;23;20398;-80
2023/03/25 05:26:41;;;;;;;23.98;19.55;;;7.90;99.90;;;;;;6211516;23;20394;-80
2023/03/25 05:29:12;;;;;;;21.48;18.52;;;7.90;99.90;;;;;;6210998;23;20458;-81
2023/03/25 05:31:41;;;;;;;22.02;19.17;;;7.90;99.90;;;;;;6211687;23;20390;-80
2023/03/25 05:34:08;;;;;;;44.55;32.58;;;7.90;99.90;;;;;;6210645;23;20445;-80
2023/03/25 05:36:35;;;;;;;27.05;22.45;;;7.90;99.90;;;;;;6211450;23;20402;-80
2023/03/25 05:39:04;;;;;;;23.15;20.08;;;7.90;99.90;;;;;;6210471;23;20371;-80
2023/03/25 05:41:31;;;;;;;34.80;29.20;;;7.90;99.90;;;;;;6211655;23;20686;-79
2023/03/25 05:43:59;;;;;;;36.47;32.20;;;8.00;99.90;;;;;;6210059;23;20378;-80
2023/03/25 05:46:30;;;;;;;27.07;23.03;;;8.00;99.90;;;;;;6211659;23;20843;-80
2023/03/25 05:48:59;;;;;;;27.17;22.05;;;8.10;99.90;;;;;;6209946;23;20381;-80
2023/03/25 05:51:32;;;;;;;27.77;21.90;;;8.10;99.90;;;;;;6211550;23;20708;-81
2023/03/25 05:54:00;;;;;;;26.08;21.42;;;8.10;99.90;;;;;;6210470;23;20429;-80
2023/03/25 05:56:28;;;;;;;17.07;14.70;;;8.10;99.90;;;;;;6211300;23;20998;-80
2023/03/25 05:58:56;;;;;;;12.55;10.02;;;8.20;99.90;;;;;;6212588;23;20452;-81
2023/03/25 06:01:23;;;;;;;13.32;10.90;;;8.20;99.90;;;;;;6212187;23;20365;-81
2023/03/25 06:04:00;;;;;;;13.63;12.23;;;8.20;99.90;;;;;;6210278;23;20378;-79
2023/03/25 06:06:28;;;;;;;15.55;13.25;;;8.20;99.90;;;;;;6211140;23;20379;-81
2023/03/25 06:08:55;;;;;;;13.40;11.88;;;8.30;99.90;;;;;;6210931;23;20750;-81
2023/03/25 06:11:22;;;;;;;11.65;9.77;;;8.30;99.90;;;;;;6210694;23;20363;-81
2023/03/25 06:13:49;;;;;;;5.93;4.65;;;8.40;99.90;;;;;;6212146;23;20457;-81
2023/03/25 06:16:21;;;;;;;4.40;3.90;;;8.40;99.90;;;;;;6213929;23;20436;-81
2023/03/25 06:18:50;;;;;;;7.90;6.75;;;8.50;99.90;;;;;;6213210;23;20378;-81
2023/03/25 06:21:21;;;;;;;1.70;0.90;;;8.60;99.90;;;;;;6212337;23;20710;-81
2023/03/25 06:23:49;;;;;;;0.50;0.20;;;8.90;99.90;;;;;;6213372;23;20425;-81
2023/03/25 06:26:17;;;;;;;0.40;0.00;;;9.20;92.70;;;;;;6211843;23;20887;-83
2023/03/25 06:28:45;;;;;;;0.38;0.10;;;9.50;85.60;;;;;;6214671;23;20678;-81
2023/03/25 06:31:16;;;;;;;0.10;0.00;;;9.90;77.80;;;;;;6212159;23;20823;-81
2023/03/25 06:33:44;;;;;;;0.40;0.00;;;10.20;70.20;;;;;;6213522;23;20773;-81
2023/03/25 06:36:14;;;;;;;0.60;0.20;;;10.40;69.60;;;;;;6212532;23;20367;-80
2023/03/25 06:38:41;;;;;;;0.50;0.10;;;10.60;67.00;;;;;;6214746;23;20398;-81
2023/03/25 06:41:08;;;;;;;0.30;0.08;;;10.90;62.60;;;;;;6212159;23;20428;-80
2023/03/25 06:43:35;;;;;;;0.95;0.10;;;11.10;61.00;;;;;;6213367;23;20371;-80
2023/03/25 06:46:02;;;;;;;0.73;0.10;;;11.30;59.80;;;;;;6211769;23;20387;-80
2023/03/25 06:48:29;;;;;;;0.30;0.10;;;11.50;58.70;;;;;;6212982;23;20393;-80
2023/03/25 06:50:56;;;;;;;1.00;0.20;;;11.60;59.40;;;;;;6214186;23;20375;-80
2023/03/25 06:53:24;;;;;;;0.30;0.10;;;11.70;57.40;;;;;;6211601;23;20688;-80
2023/03/25 06:55:51;;;;;;;0.30;0.10;;;11.90;56.20;;;;;;6213101;23;20429;-80
2023/03/25 06:58:18;;;;;;;0.80;0.13;;;12.10;54.80;;;;;;6212204;23;20510;-80
2023/03/25 07:00:45;;;;;;;0.30;0.10;;;12.10;54.80;;;;;;6212966;23;20878;-80
2023/03/25 07:03:12;;;;;;;0.13;0.00;;;12.20;54.30;;;;;;6212035;23;20771;-79
2023/03/25 07:05:41;;;;;;;0.32;0.10;;;12.30;53.90;;;;;;6212547;23;20852;-79
2023/03/25 07:08:08;;;;;;;0.30;0.13;;;12.50;53.10;;;;;;6212073;23;20437;-80
2023/03/25 07:10:35;;;;;;;0.22;0.10;;;12.60;51.90;;;;;;6213948;23;20366;-80
2023/03/25 07:13:02;;;;;;;0.50;0.10;;;12.70;52.00;;;;;;6212502;23;20370;-81
2023/03/25 07:15:28;;;;;;;0.50;0.20;;;12.90;49.90;;;;;;6213357;23;20378;-80
2023/03/25 07:17:55;;;;;;;0.90;0.20;;;13.10;48.60;;;;;;6212395;23;20430;-79
2023/03/25 07:20:22;;;;;;;0.70;0.10;;;13.20;48.90;;;;;;6211309;23;20417;-80
2023/03/25 07:22:49;;;;;;;1.10;0.20;;;13.30;48.80;;;;;;6212245;23;20390;-80
2023/03/25 07:25:16;;;;;;;0.45;0.20;;;13.50;48.70;;;;;;6211011;23;20385;-80
2023/03/25 07:27:43;;;;;;;0.20;0.10;;;13.60;48.30;;;;;;6211737;23;20402;-79
2023/03/25 07:30:10;;;;;;;0.15;0.10;;;13.60;49.00;;;;;;6211335;23;20433;-79
2023/03/25 07:32:37;;;;;;;0.17;0.10;;;13.80;48.20;;;;;;6212040;23;20370;-79
2023/03/25 07:35:05;;;;;;;0.30;0.10;;;13.90;47.10;;;;;;6212523;23;20437;-80
2023/03/25 07:37:32;;;;;;;0.40;0.10;;;14.00;46.30;;;;;;6211793;23;20370;-79
2023/03/25 07:40:00;;;;;;;0.80;0.10;;;14.10;47.50;;;;;;6212541;23;20373;-79
2023/03/25 07:42:27;;;;;;;1.20;0.20;;;14.20;46.70;;;;;;6211334;23;20399;-79
2023/03/25 07:44:54;;;;;;;1.25;0.40;;;14.30;45.70;;;;;;6211993;23;20373;-79
2023/03/25 07:47:21;;;;;;;1.00;0.60;;;14.50;45.10;;;;;;6211149;23;20748;-80
2023/03/25 07:49:48;;;;;;;0.70;0.50;;;14.60;45.30;;;;;;6212130;23;20425;-80
2023/03/25 07:52:15;;;;;;;1.52;0.20;;;14.70;44.60;;;;;;6210818;23;20401;-80
2023/03/25 07:54:42;;;;;;;0.50;0.10;;;14.80;43.80;;;;;;6212324;23;20376;-80
2023/03/25 07:57:09;;;;;;;0.50;0.10;;;14.90;44.30;;;;;;6211450;23;20912;-79
2023/03/25 07:59:36;;;;;;;0.60;0.40;;;15.00;44.40;;;;;;6211896;23;20458;-79
2023/03/25 08:02:03;;;;;;;1.40;0.60;;;15.20;43.80;;;;;;6211606;23;20391;-80
2023/03/25 08:04:30;;;;;;;1.23;0.40;;;15.30;42.80;;;;;;6211869;23;20363;-80
2023/03/25 08:06:57;;;;;;;0.90;0.10;;;15.50;41.50;;;;;;6211965;23;20444;-79
2023/03/25 08:09:24;;;;;;;0.30;0.10;;;15.70;41.60;;;;;;6212335;23;20398;-79
2023/03/25 08:11:51;;;;;;;1.87;0.10;;;15.80;41.50;;;;;;6212075;23;20442;-80
2023/03/25 08:14:18;;;;;;;0.30;0.13;;;15.90;40.10;;;;;;6211275;23;20453;-79
2023/03/25 08:16:45;;;;;;;0.32;0.10;;;16.00;40.80;;;;;;6211570;23;20370;-79
2023/03/25 08:19:12;;;;;;;0.10;0.10;;;16.10;39.90;;;;;;6211023;23;20387;-79
2023/03/25 08:21:39;;;;;;;0.30;0.00;;;16.20;41.00;;;;;;6213075;23;20465;-79
2023/03/25 08:24:06;;;;;;;0.70;0.10;;;16.20;40.00;;;;;;6211656;23;20456;-80
2023/03/25 08:26:34;;;;;;;0.30;0.10;;;16.40;38.90;;;;;;6210643;23;20363;-79
2023/03/25 08:29:01;;;;;;;0.80;0.00;;;16.50;38.80;;;;;;6212048;23;20488;-79
2023/03/25 08:31:34;;;;;;;3.10;0.10;;;16.60;37.40;;;;;;6210769;23;20471;-79
2023/03/25 08:34:04;;;;;;;0.57;0.10;;;16.70;37.90;;;;;;6212058;23;20704;-79
2023/03/25 08:36:31;;;;;;;0.20;0.10;;;16.80;38.20;;;;;;6210472;23;20397;-79
2023/03/25 08:38:57;;;;;;;0.20;0.00;;;16.90;38.50;;;;;;6211404;23;20366;-79
2023/03/25 08:41:24;;;;;;;0.47;0.10;;;17.00;37.30;;;;;;6210243;23;20760;-80
2023/03/25 08:43:51;;;;;;;0.70;0.10;;;17.00;37.60;;;;;;6211521;23;20712;-80
2023/03/25 08:46:18;;;;;;;0.28;0.10;;;17.10;37.30;;;;;;6209800;23;20401;-80
2023/03/25 08:48:47;;;;;;;0.10;0.00;;;17.30;36.80;;;;;;6211108;23;20359;-81
2023/03/25 08:51:16;;;;;;;0.30;0.08;;;17.40;37.00;;;;;;6210124;23;20378;-80
2023/03/25 08:53:42;;;;;;;0.67;0.10;;;17.50;35.90;;;;;;6210663;23;20791;-79
2023/03/25 08:56:12;;;;;;;0.60;0.03;;;17.60;35.80;;;;;;6211122;23;20479;-79
2023/03/25 08:58:39;;;;;;;0.77;0.10;;;17.60;35.50;;;;;;6209855;23;20374;-80
2023/03/25 09:01:06;;;;;;;0.40;0.10;;;17.70;35.10;;;;;;6211249;23;20398;-80
2023/03/25 09:03:33;;;;;;;0.30;0.00;;;17.70;35.50;;;;;;6210303;23;20438;-79
2023/03/25 09:06:07;;;;;;;0.10;0.00;;;17.80;35.00;;;;;;6210950;23;20429;-80
2023/03/25 09:08:36;;;;;;;0.30;0.10;;;17.90;34.80;;;;;;6209740;23;20374;-80
2023/03/25 09:11:03;;;;;;;0.43;0.00;;;18.00;33.70;;;;;;6211594;23;20371;-81
2023/03/25 09:13:30;;;;;;;0.13;0.00;;;18.10;33.50;;;;;;6211302;23;20375;-80
2023/03/25 09:15:57;;;;;;;0.25;0.10;;;18.10;33.80;;;;;;6212488;23;20370;-81
2023/03/25 09:18:24;;;;;;;0.20;0.10;;;18.20;33.30;;;;;;6210465;23;20371;-80
2023/03/25 09:20:56;;;;;;;0.20;0.05;;;18.30;34.00;;;;;;6210368;23;20440;-80
2023/03/25 09:23:23;;;;;;;0.60;0.10;;;18.30;32.00;;;;;;6209879;23;20895;-79
2023/03/25 09:25:50;;;;;;;0.13;0.10;;;18.30;33.00;;;;;;6210283;23;20379;-79
2023/03/25 09:28:17;;;;;;;0.30;0.10;;;18.40;33.70;;;;;;6209852;23;20367;-80
2023/03/25 09:30:44;;;;;;;0.60;0.05;;;18.60;31.60;;;;;;6211655;23;20421;-80
2023/03/25 09:33:11;;;;;;;0.20;0.00;;;18.70;32.40;;;;;;6210949;23;20371;-80
2023/03/25 09:35:39;;;;;;;0.10;0.00;;;18.70;31.70;;;;;;6210646;23;20387;-80
2023/03/25 09:38:06;;;;;;;1.90;0.20;;;18.80;31.00;;;;;;6206380;23;20711;-81
2023/03/25 09:40:34;;;;;;;0.17;0.08;;;18.90;31.30;;;;;;6210320;23;20370;-81
2023/03/25 09:43:21;;;;;;;1.10;0.00;;;19.00;30.10;;;;;;6210879;23;20732;-81
2023/03/25 09:45:49;;;;;;;0.10;0.00;;;19.00;30.60;;;;;;6210349;23;20370;-80
2023/03/25 09:48:37;;;;;;;0.90;0.10;;;19.10;30.00;;;;;;6211822;23;20410;-80
2023/03/25 09:51:27;;;;;;;0.90;0.10;;;19.20;30.60;;;;;;6212123;23;20371;-80
2023/03/25 09:54:02;;;;;;;0.90;0.00;;;19.30;30.70;;;;;;6211192;23;20367;-80
2023/03/25 09:56:35;;;;;;;0.10;0.00;;;19.30;29.80;;;;;;6212773;23;20371;-80
2023/03/25 09:59:14;;;;;;;0.32;0.08;;;19.40;29.60;;;;;;6210657;23;20428;-80
2023/03/25 10:01:41;;;;;;;1.05;0.00;;;19.60;30.10;;;;;;6213445;23;20378;-81
2023/03/25 10:04:20;;;;;;;0.20;0.00;;;19.70;29.30;;;;;;6211674;23;20450;-81
2023/03/25 10:07:13;;;;;;;0.68;0.10;;;19.80;28.90;;;;;;6211613;23;20370;-80
2023/03/25 10:10:07;;;;;;;0.22;0.05;;;19.90;29.70;;;;;;6211863;23;20442;-81
2023/03/25 10:12:50;;;;;;;0.20;0.00;;;20.00;28.60;;;;;;6211204;23;20371;-80
2023/03/25 10:15:26;;;;;;;0.07;0.00;;;20.10;29.40;;;;;;6211110;23;20379;-80
2023/03/25 10:17:55;;;;;;;0.10;0.00;;;20.30;28.40;;;;;;6212964;23;20398;-81
2023/03/25 10:21:00;;;;;;;1.40;0.00;;;20.40;27.80;;;;;;6211257;23;20371;-81
2023/03/25 10:23:33;;;;;;;0.30;0.07;;;20.40;27.70;;;;;;6209686;23;20374;-80
2023/03/25 10:26:19;;;;;;;0.43;0.00;;;20.40;28.30;;;;;;6212717;23;20429;-81
2023/03/25 10:29:02;;;;;;;0.00;0.00;;;20.50;26.80;;;;;;6212169;23;20421;-81
2023/03/25 10:31:34;;;;;;;0.20;0.00;;;20.50;28.30;;;;;;6212217;23;20382;-81
2023/03/25 10:34:06;;;;;;;0.10;0.00;;;20.60;27.20;;;;;;6212886;23;20446;-81
2023/03/25 10:36:48;;;;;;;0.10;0.00;;;20.70;26.30;;;;;;6211490;23;20374;-81
2023/03/25 10:39:20;;;;;;;0.10;0.10;;;20.60;27.10;;;;;;6212889;23;20374;-81
2023/03/25 10:42:25;;;;;;;0.03;0.00;;;20.60;28.00;;;;;;6211768;23;20689;-81
2023/03/25 10:44:53;;;;;;;0.50;0.00;;;20.80;27.20;;;;;;6205727;23;20458;-81
2023/03/25 10:47:25;;;;;;;0.15;0.00;;;20.90;27.70;;;;;;6212071;23;20456;-81
2023/03/25 10:49:54;;;;;;;0.20;0.10;;;21.00;27.00;;;;;;6212000;23;20378;-82
2023/03/25 10:52:20;;;;;;;0.70;0.00;;;21.20;26.90;;;;;;6212152;23;20366;-81
2023/03/25 10:54:55;;;;;;;0.10;0.00;;;21.20;26.30;;;;;;6212780;23;20370;-81
2023/03/25 10:57:29;;;;;;;0.05;0.00;;;21.30;28.10;;;;;;6211792;23;20381;-81
2023/03/25 11:00:18;;;;;;;0.75;0.10;;;21.40;26.60;;;;;;6210817;23;20425;-82
2023/03/25 11:02:46;;;;;;;0.10;0.00;;;21.50;27.60;;;;;;6210951;23;20374;-82
2023/03/25 11:05:19;;;;;;;1.45;0.10;;;21.70;26.40;;;;;;6212348;23;20385;-82
2023/03/25 11:07:54;;;;;;;0.08;0.00;;;21.70;26.80;;;;;;6211313;23;20437;-82
2023/03/25 11:10:28;;;;;;;0.30;0.00;;;21.60;26.10;;;;;;6212047;23;20880;-81
2023/03/25 11:13:00;;;;;;;0.20;0.00;;;21.60;26.30;;;;;;6211283;23;20397;-80
2023/03/25 11:15:33;;;;;;;0.17;0.00;;;21.50;26.90;;;;;;6211922;23;20373;-81
2023/03/25 11:18:25;;;;;;;0.20;0.00;;;21.50;26.60;;;;;;6211978;23;20720;-81
2023/03/25 11:21:16;;;;;;;0.10;0.00;;;21.60;26.80;;;;;;6211536;23;20371;-81
2023/03/25 11:23:46;;;;;;;0.03;0.00;;;21.70;26.70;;;;;;6200114;23;20382;-81
2023/03/25 11:26:39;;;;;;;0.10;0.00;;;21.80;26.10;;;;;;6211809;23;20371;-81
2023/03/25 11:29:11;;;;;;;0.90;0.00;;;21.90;26.00;;;;;;6211438;23;20426;-81
2023/03/25 11:31:41;;;;;;;0.30;0.00;;;21.80;27.10;;;;;;6211830;23;20370;-81
2023/03/25 11:34:11;;;;;;;0.00;0.00;;;21.90;25.60;;;;;;6210906;23;20662;-81
2023/03/25 11:36:58;;;;;;;0.22;0.00;;;21.90;25.90;;;;;;6211991;23;20497;-81
2023/03/25 11:39:31;;;;;;;0.25;0.00;;;21.90;25.90;;;;;;6210322;23;20452;-81
2023/03/25 11:41:59;;;;;;;0.00;0.00;;;21.90;26.00;;;;;;6211381;23;20375;-81
2023/03/25 11:44:31;;;;;;;0.13;0.00;;;21.90;25.20;;;;;;6210843;23;20459;-81
2023/03/25 11:47:08;;;;;;;0.05;0.00;;;21.90;25.80;;;;;;6211162;23;20855;-79
2023/03/25 11:49:37;;;;;;;0.00;0.00;;;21.90;25.50;;;;;;6212834;23;20366;-80
2023/03/25 11:52:19;;;;;;;0.30;0.00;;;21.80;25.40;;;;;;6211521;23;20374;-80
2023/03/25 11:54:47;;;;;;;0.60;0.00;;;21.90;25.40;;;;;;6211115;23;20379;-80
2023/03/25 11:57:29;;;;;;;0.80;0.00;;;22.00;25.90;;;;;;6211566;23;20370;-80
2023/03/25 12:00:11;;;;;;;0.40;0.00;;;22.00;24.90;;;;;;6211124;23;20359;-81
2023/03/25 12:02:39;;;;;;;1.38;0.00;;;22.10;25.90;;;;;;6210747;23;20764;-79
2023/03/25 12:05:13;;;;;;;0.50;0.00;;;22.20;24.80;;;;;;6211733;23;20401;-81
2023/03/25 12:07:48;;;;;;;1.05;0.00;;;22.30;24.10;;;;;;6185648;23;20773;-80
2023/03/25 12:10:20;;;;;;;0.00;0.00;;;22.30;24.20;;;;;;6211251;23;20656;-82
2023/03/25 12:13:11;;;;;;;1.20;0.05;;;22.30;24.70;;;;;;6212006;23;20409;-81
2023/03/25 12:15:50;;;;;;;1.83;0.00;;;22.40;24.90;;;;;;6210060;23;20409;-80
2023/03/25 12:18:32;;;;;;;0.08;0.00;;;22.50;24.10;;;;;;6211020;23;20429;-82
2023/03/25 12:21:06;;;;;;;0.30;0.00;;;22.60;23.60;;;;;;6210221;23;20359;-80
2023/03/25 12:24:04;;;;;;;0.10;0.00;;;22.60;24.00;;;;;;6211556;23;20367;-81
2023/03/25 12:26:53;;;;;;;0.20;0.00;;;22.60;23.00;;;;;;6210552;23;20424;-81
2023/03/25 12:29:37;;;;;;;0.10;0.00;;;22.70;23.60;;;;;;6211739;23;20437;-80
2023/03/25 12:32:33;;;;;;;0.00;0.00;;;22.70;23.40;;;;;;6211397;23;20371;-80
2023/03/25 12:35:20;;;;;;;0.50;0.00;;;22.80;22.70;;;;;;6192689;23;20371;-82
2023/03/25 12:37:53;;;;;;;0.00;0.00;;;22.70;23.50;;;;;;6210688;23;20374;-81
2023/03/25 12:40:37;;;;;;;0.10;0.00;;;22.90;23.50;;;;;;6211061;23;20367;-80
2023/03/25 12:43:09;;;;;;;0.60;0.10;;;22.80;23.70;;;;;;6207714;23;20367;-80
2023/03/25 12:45:55;;;;;;;1.02;0.10;;;22.90;22.30;;;;;;6210888;23;20740;-81
2023/03/25 12:48:25;;;;;;;0.60;0.00;;;22.80;22.70;;;;;;6210778;23;20402;-79
2023/03/25 12:51:02;;;;;;;1.45;0.00;;;22.90;23.50;;;;;;6211392;23;20402;-79
2023/03/25 12:54:20;;;;;;;0.25;0.00;;;23.00;23.30;;;;;;6210557;23;20375;-80
2023/03/25 12:57:34;;;;;;;0.40;0.00;;;23.10;23.40;;;;;;6124428;23;20438;-80
2023/03/25 13:00:21;;;;;;;0.25;0.00;;;23.10;22.20;;;;;;6078252;23;20476;-79
2023/03/25 13:03:13;;;;;;;0.52;0.00;;;23.10;23.60;;;;;;6210675;23;20429;-80
2023/03/25 13:05:53;;;;;;;0.50;0.00;;;23.30;23.00;;;;;;6210627;23;20377;-80
2023/03/25 13:08:28;;;;;;;0.60;0.00;;;23.50;22.80;;;;;;6211206;23;20741;-80
2023/03/25 13:11:02;;;;;;;0.30;0.00;;;23.60;23.70;;;;;;6210559;23;20913;-80
2023/03/25 13:13:32;;;;;;;0.80;0.00;;;23.80;22.40;;;;;;6208276;23;20433;-80
2023/03/25 13:16:08;;;;;;;0.30;0.00;;;23.90;22.60;;;;;;6208673;23;20812;-80
2023/03/25 13:18:59;;;;;;;0.60;0.00;;;23.90;22.30;;;;;;6210826;23;20378;-78
2023/03/25 13:21:30;;;;;;;0.05;0.05;;;24.00;22.50;;;;;;6210968;23;20424;-80
2023/03/25 13:24:09;;;;;;;0.30;0.00;;;24.00;22.60;;;;;;6213025;23;20432;-80
2023/03/25 13:26:39;;;;;;;0.20;0.00;;;24.20;21.30;;;;;;6212765;23;20371;-81
2023/03/25 13:29:37;;;;;;;0.00;0.00;;;24.20;21.40;;;;;;6212997;23;20433;-80
2023/03/25 13:32:49;;;;;;;0.10;0.00;;;24.30;21.80;;;;;;6212700;23;20689;-80
2023/03/25 13:35:19;;;;;;;0.10;0.00;;;24.20;21.50;;;;;;6172103;23;20469;-80
2023/03/25 13:37:51;;;;;;;0.10;0.00;;;24.10;21.40;;;;;;6213173;23;20697;-80
2023/03/25 13:40:53;;;;;;;0.00;0.00;;;24.20;20.90;;;;;;6212083;23;20359;-80
2023/03/25 13:43:51;;;;;;;0.00;0.00;;;24.10;21.00;;;;;;6212346;23;20377;-81
2023/03/25 13:46:28;;;;;;;0.50;0.03;;;24.10;21.40;;;;;;6192176;23;20358;-81
2023/03/25 13:49:02;;;;;;;0.30;0.00;;;24.30;21.20;;;;;;6212049;23;20703;-79
2023/03/25 13:51:29;;;;;;;2.38;0.13;;;24.20;20.40;;;;;;6212361;23;20673;-80
2023/03/25 13:54:09;;;;;;;0.30;0.00;;;24.20;21.20;;;;;;6212912;23;20855;-79
2023/03/25 13:56:56;;;;;;;0.40;0.00;;;24.00;20.80;;;;;;6212064;23;20390;-79
2023/03/25 13:59:55;;;;;;;0.40;0.30;;;23.90;21.00;;;;;;6211284;23;20381;-79
2023/03/25 14:02:28;;;;;;;2.47;0.10;;;23.90;21.60;;;;;;6211409;23;20752;-79
2023/03/25 14:05:03;;;;;;;0.10;0.00;;;23.70;21.30;;;;;;6212893;23;20832;-79
2023/03/25 14:08:02;;;;;;;0.00;0.00;;;23.80;21.30;;;;;;6211753;23;20438;-79
2023/03/25 14:11:01;;;;;;;1.15;0.00;;;23.90;21.00;;;;;;6211720;23;20701;-79
2023/03/25 14:13:35;;;;;;;2.75;0.10;;;23.90;20.70;;;;;;6166271;23;20401;-79
2023/03/25 14:16:07;;;;;;;1.97;0.00;;;23.90;20.50;;;;;;6212338;23;20752;-80
2023/03/25 14:18:48;;;;;;;3.40;0.00;;;23.90;21.00;;;;;;6211469;23;20480;-79
2023/03/25 14:21:42;;;;;;;0.80;0.00;;;23.90;21.00;;;;;;6211494;23;20442;-84
2023/03/25 14:24:30;;;;;;;0.70;0.00;;;23.80;21.20;;;;;;6212593;23;20374;-81
2023/03/25 14:27:28;;;;;;;0.30;0.00;;;23.80;22.20;;;;;;6210638;23;20367;-81
2023/03/25 14:30:03;;;;;;;0.00;0.00;;;23.90;21.00;;;;;;6210870;23;20375;-80
2023/03/25 14:32:33;;;;;;;0.10;0.00;;;23.80;21.20;;;;;;6212403;23;20761;-81
2023/03/25 14:35:37;;;;;;;0.00;0.00;;;23.70;21.20;;;;;;6211861;23;20696;-81
2023/03/25 14:38:07;;;;;;;0.10;0.10;;;23.60;21.60;;;;;;6212707;23;20377;-80